sensor_id;sensor_type;location;lat;lon;timestamp;pressure;altitude;pressure_sealevel;temperature;humidity
44457;BME280;30159;49.316;8.558;2023-05-19T00:01:51;100998.28;;;13.19;66.83
44457;BME280;30159;49.316;8.558;2023-05-19T00:04:18;100995.03;;;13.17;66.75
44457;BME280;30159;49.316;8.558;2023-05-19T00:06:46;100989.66;;;13.12;66.88
44457;BME280;30159;49.316;8.558;2023-05-19T00:09:16;100996.94;;;13.16;66.69
44457;BME280;30159;49.316;8.558;2023-05-19T00:11:44;100989.63;;;13.17;66.74
44457;BME280;30159;49.316;8.558;2023-05-19T00:14:11;100981.78;;;13.15;67.08
44457;BME280;30159;49.316;8.558;2023-05-19T00:16:38;100972.91;;;13.04;66.33
44457;BME280;30159;49.316;8.558;2023-05-19T00:19:06;100960.81;;;12.97;66.72
44457;BME280;30159;49.316;8.558;2023-05-19T00:21:35;100986.72;;;13.08;66.53
44457;BME280;30159;49.316;8.558;2023-05-19T00:24:03;100979.72;;;13.02;66.83
44457;BME280;30159;49.316;8.558;2023-05-19T00:26:31;100975.72;;;12.94;66.39
44457;BME280;30159;49.316;8.558;2023-05-19T00:28:57;100987.56;;;13.03;67.24
44457;BME280;30159;49.316;8.558;2023-05-19T00:31:24;100966.06;;;12.78;67.40
44457;BME280;30159;49.316;8.558;2023-05-19T00:33:51;100977.63;;;12.94;66.36
44457;BME280;30159;49.316;8.558;2023-05-19T00:36:17;100990.06;;;12.95;66.69
44457;BME280;30159;49.316;8.558;2023-05-19T00:38:44;100901.94;;;12.29;67.01
44457;BME280;30159;49.316;8.558;2023-05-19T00:41:10;100986.28;;;12.91;66.71
44457;BME280;30159;49.316;8.558;2023-05-19T00:43:38;100986.00;;;12.92;66.98
44457;BME280;30159;49.316;8.558;2023-05-19T00:46:05;100982.53;;;12.81;67.90
44457;BME280;30159;49.316;8.558;2023-05-19T00:48:32;100990.63;;;12.86;67.36
44457;BME280;30159;49.316;8.558;2023-05-19T00:50:59;100981.47;;;12.82;67.70
44457;BME280;30159;49.316;8.558;2023-05-19T00:53:28;100986.88;;;12.82;67.09
44457;BME280;30159;49.316;8.558;2023-05-19T00:55:56;100977.19;;;12.71;67.17
44457;BME280;30159;49.316;8.558;2023-05-19T00:58:24;100982.03;;;12.74;67.08
44457;BME280;30159;49.316;8.558;2023-05-19T01:00:55;100957.28;;;12.52;68.98
44457;BME280;30159;49.316;8.558;2023-05-19T01:03:29;100980.50;;;12.58;69.21
44457;BME280;30159;49.316;8.558;2023-05-19T01:05:56;100987.88;;;12.47;70.46
44457;BME280;30159;49.316;8.558;2023-05-19T01:08:26;100978.41;;;12.39;70.46
44457;BME280;30159;49.316;8.558;2023-05-19T01:10:55;100965.75;;;12.30;71.85
44457;BME280;30159;49.316;8.558;2023-05-19T01:13:21;100981.19;;;12.24;72.09
44457;BME280;30159;49.316;8.558;2023-05-19T01:15:58;100971.19;;;12.14;72.39
44457;BME280;30159;49.316;8.558;2023-05-19T01:18:32;100972.84;;;12.15;73.38
44457;BME280;30159;49.316;8.558;2023-05-19T01:21:12;100975.56;;;12.10;73.44
44457;BME280;30159;49.316;8.558;2023-05-19T01:23:51;100965.03;;;12.04;74.35
44457;BME280;30159;49.316;8.558;2023-05-19T01:26:43;100966.13;;;11.97;75.13
44457;BME280;30159;49.316;8.558;2023-05-19T01:29:40;100972.34;;;11.93;75.29
44457;BME280;30159;49.316;8.558;2023-05-19T01:32:09;100961.56;;;11.88;77.37
44457;BME280;30159;49.316;8.558;2023-05-19T01:34:41;100933.47;;;11.53;78.39
44457;BME280;30159;49.316;8.558;2023-05-19T01:37:08;100977.25;;;11.70;79.72
44457;BME280;30159;49.316;8.558;2023-05-19T01:39:36;100960.50;;;11.53;81.42
44457;BME280;30159;49.316;8.558;2023-05-19T01:42:03;100927.84;;;11.24;81.73
44457;BME280;30159;49.316;8.558;2023-05-19T01:44:31;100972.94;;;11.44;82.19
44457;BME280;30159;49.316;8.558;2023-05-19T01:46:59;100976.44;;;11.39;81.42
44457;BME280;30159;49.316;8.558;2023-05-19T01:49:27;100970.50;;;11.37;80.85
44457;BME280;30159;49.316;8.558;2023-05-19T01:51:53;100964.56;;;11.35;81.00
44457;BME280;30159;49.316;8.558;2023-05-19T01:54:20;100970.50;;;11.37;82.92
44457;BME280;30159;49.316;8.558;2023-05-19T01:56:54;100977.81;;;11.31;83.07
44457;BME280;30159;49.316;8.558;2023-05-19T01:59:33;100985.63;;;11.12;87.00
44457;BME280;30159;49.316;8.558;2023-05-19T02:02:11;100986.66;;;10.91;89.53
44457;BME280;30159;49.316;8.558;2023-05-19T02:04:44;100988.22;;;10.71;92.92
44457;BME280;30159;49.316;8.558;2023-05-19T02:07:16;100991.41;;;10.58;93.88
44457;BME280;30159;49.316;8.558;2023-05-19T02:09:52;100972.75;;;10.41;95.21
44457;BME280;30159;49.316;8.558;2023-05-19T02:12:25;100995.72;;;10.49;95.56
44457;BME280;30159;49.316;8.558;2023-05-19T02:15:04;100991.41;;;10.58;96.16
44457;BME280;30159;49.316;8.558;2023-05-19T02:17:33;100973.06;;;10.50;96.18
44457;BME280;30159;49.316;8.558;2023-05-19T02:20:03;100999.50;;;10.58;96.68
44457;BME280;30159;49.316;8.558;2023-05-19T02:22:30;100991.94;;;10.55;96.16
44457;BME280;30159;49.316;8.558;2023-05-19T02:24:56;100990.34;;;10.54;96.74
44457;BME280;30159;49.316;8.558;2023-05-19T02:27:23;100994.63;;;10.50;96.63
44457;BME280;30159;49.316;8.558;2023-05-19T02:29:50;100997.81;;;10.42;97.48
44457;BME280;30159;49.316;8.558;2023-05-19T02:32:17;100996.75;;;10.38;99.67
44457;BME280;30159;49.316;8.558;2023-05-19T02:34:43;100989.72;;;10.42;99.67
44457;BME280;30159;49.316;8.558;2023-05-19T02:37:12;100989.44;;;10.33;99.90
44457;BME280;30159;49.316;8.558;2023-05-19T02:39:38;100989.66;;;10.26;100.00
44457;BME280;30159;49.316;8.558;2023-05-19T02:42:05;100988.56;;;10.27;100.00
44457;BME280;30159;49.316;8.558;2023-05-19T02:44:32;100975.03;;;10.17;100.00
44457;BME280;30159;49.316;8.558;2023-05-19T02:46:58;100991.50;;;10.21;100.00
44457;BME280;30159;49.316;8.558;2023-05-19T02:49:25;100951.22;;;9.94;100.00
44457;BME280;30159;49.316;8.558;2023-05-19T02:51:51;100986.34;;;10.14;100.00
44457;BME280;30159;49.316;8.558;2023-05-19T02:54:19;100954.72;;;9.99;100.00
44457;BME280;30159;49.316;8.558;2023-05-19T02:56:46;100984.47;;;10.15;100.00
44457;BME280;30159;49.316;8.558;2023-05-19T02:59:12;100981.97;;;10.03;100.00
44457;BME280;30159;49.316;8.558;2023-05-19T03:01:39;100980.91;;;10.09;100.00
44457;BME280;30159;49.316;8.558;2023-05-19T03:04:05;100986.88;;;10.11;100.00
44457;BME280;30159;49.316;8.558;2023-05-19T03:06:32;100984.38;;;9.99;100.00
44457;BME280;30159;49.316;8.558;2023-05-19T03:08:59;100933.16;;;9.52;100.00
44457;BME280;30159;49.316;8.558;2023-05-19T03:11:27;100976.41;;;9.72;100.00
44457;BME280;30159;49.316;8.558;2023-05-19T03:13:53;100980.13;;;9.66;100.00
44457;BME280;30159;49.316;8.558;2023-05-19T03:16:20;100977.66;;;9.59;100.00
44457;BME280;30159;49.316;8.558;2023-05-19T03:18:46;100982.50;;;9.62;100.00
44457;BME280;30159;49.316;8.558;2023-05-19T03:21:13;100985.25;;;9.67;100.00
44457;BME280;30159;49.316;8.558;2023-05-19T03:23:39;100971.25;;;9.65;100.00
44457;BME280;30159;49.316;8.558;2023-05-19T03:26:06;100977.00;;;9.79;100.00
44457;BME280;30159;49.316;8.558;2023-05-19T03:28:34;100976.50;;;9.87;100.00
44457;BME280;30159;49.316;8.558;2023-05-19T03:31:00;100950.53;;;9.71;100.00
44457;BME280;30159;49.316;8.558;2023-05-19T03:33:27;100979.53;;;10.01;100.00
44457;BME280;30159;49.316;8.558;2023-05-19T03:35:55;100974.69;;;9.98;100.00
44457;BME280;30159;49.316;8.558;2023-05-19T03:38:21;100978.19;;;10.04;100.00
44457;BME280;30159;49.316;8.558;2023-05-19T03:40:48;100978.19;;;9.99;100.00
44457;BME280;30159;49.316;8.558;2023-05-19T03:43:15;100976.00;;;9.96;100.00
44457;BME280;30159;49.316;8.558;2023-05-19T03:45:42;100983.00;;;9.97;100.00
44457;BME280;30159;49.316;8.558;2023-05-19T03:48:09;100983.56;;;9.99;100.00
44457;BME280;30159;49.316;8.558;2023-05-19T03:50:36;100990.28;;;9.96;100.00
44457;BME280;30159;49.316;8.558;2023-05-19T03:53:03;100991.06;;;9.91;100.00
44457;BME280;30159;49.316;8.558;2023-05-19T03:55:30;100991.59;;;9.88;100.00
44457;BME280;30159;49.316;8.558;2023-05-19T03:57:56;100991.00;;;9.81;100.00
44457;BME280;30159;49.316;8.558;2023-05-19T04:00:23;100993.97;;;9.80;100.00
44457;BME280;30159;49.316;8.558;2023-05-19T04:02:51;100991.50;;;9.73;100.00
44457;BME280;30159;49.316;8.558;2023-05-19T04:05:18;101004.50;;;9.86;100.00
44457;BME280;30159;49.316;8.558;2023-05-19T04:07:44;100933.16;;;9.52;100.00
44457;BME280;30159;49.316;8.558;2023-05-19T04:10:12;101002.41;;;9.94;100.00
44457;BME280;30159;49.316;8.558;2023-05-19T04:12:39;101007.25;;;9.91;100.00
44457;BME280;30159;49.316;8.558;2023-05-19T04:15:06;101004.81;;;9.95;100.00
44457;BME280;30159;49.316;8.558;2023-05-19T04:17:35;101014.75;;;9.89;100.00
44457;BME280;30159;49.316;8.558;2023-05-19T04:20:04;101008.53;;;9.84;100.00
44457;BME280;30159;49.316;8.558;2023-05-19T04:22:31;101011.50;;;9.87;100.00
44457;BME280;30159;49.316;8.558;2023-05-19T04:24:58;100969.63;;;9.69;100.00
44457;BME280;30159;49.316;8.558;2023-05-19T04:27:24;101007.63;;;10.16;100.00
44457;BME280;30159;49.316;8.558;2023-05-19T04:29:52;101005.06;;;10.31;100.00
44457;BME280;30159;49.316;8.558;2023-05-19T04:32:19;100993.47;;;10.30;100.00
44457;BME280;30159;49.316;8.558;2023-05-19T04:34:46;101010.78;;;10.45;100.00
44457;BME280;30159;49.316;8.558;2023-05-19T04:37:14;101014.03;;;10.47;100.00
44457;BME280;30159;49.316;8.558;2023-05-19T04:39:41;101017.31;;;10.54;100.00
44457;BME280;30159;49.316;8.558;2023-05-19T04:42:09;100993.47;;;10.30;100.00
44457;BME280;30159;49.316;8.558;2023-05-19T04:44:36;101017.53;;;10.47;100.00
44457;BME280;30159;49.316;8.558;2023-05-19T04:47:05;101017.00;;;10.50;100.00
44457;BME280;30159;49.316;8.558;2023-05-19T04:49:33;101020.59;;;10.76;100.00
44457;BME280;30159;49.316;8.558;2023-05-19T04:52:04;100959.78;;;10.33;99.56
44457;BME280;30159;49.316;8.558;2023-05-19T04:54:33;101027.66;;;10.88;99.32
44457;BME280;30159;49.316;8.558;2023-05-19T04:56:59;101026.31;;;10.95;99.04
44457;BME280;30159;49.316;8.558;2023-05-19T04:59:26;100957.44;;;10.62;97.29
44457;BME280;30159;49.316;8.558;2023-05-19T05:01:53;101022.28;;;10.93;98.00
44457;BME280;30159;49.316;8.558;2023-05-19T05:04:20;101026.31;;;10.90;98.03
44457;BME280;30159;49.316;8.558;2023-05-19T05:06:46;100975.03;;;10.80;98.60
44457;BME280;30159;49.316;8.558;2023-05-19T05:09:13;101025.06;;;11.29;95.91
44457;BME280;30159;49.316;8.558;2023-05-19T05:11:42;100973.72;;;11.03;95.34
44457;BME280;30159;49.316;8.558;2023-05-19T05:14:09;101027.75;;;11.39;93.21
44457;BME280;30159;49.316;8.558;2023-05-19T05:16:36;100979.13;;;11.13;93.95
44457;BME280;30159;49.316;8.558;2023-05-19T05:19:03;101022.34;;;11.70;95.01
44457;BME280;30159;49.316;8.558;2023-05-19T05:21:31;101023.47;;;11.89;91.08
44457;BME280;30159;49.316;8.558;2023-05-19T05:23:58;101024.47;;;12.14;90.21
44457;BME280;30159;49.316;8.558;2023-05-19T05:26:28;101021.78;;;12.24;87.97
44457;BME280;30159;49.316;8.558;2023-05-19T05:28:57;101024.97;;;12.36;87.71
44457;BME280;30159;49.316;8.558;2023-05-19T05:31:23;101018.38;;;12.68;86.23
44457;BME280;30159;49.316;8.558;2023-05-19T05:33:50;101022.72;;;12.64;84.27
44457;BME280;30159;49.316;8.558;2023-05-19T05:36:16;101025.72;;;13.07;84.63
44457;BME280;30159;49.316;8.558;2023-05-19T05:38:43;101032.97;;;13.56;81.74
44457;BME280;30159;49.316;8.558;2023-05-19T05:41:09;101025.06;;;13.94;79.04
44457;BME280;30159;49.316;8.558;2023-05-19T05:43:36;101024.69;;;14.54;76.12
44457;BME280;30159;49.316;8.558;2023-05-19T05:46:04;101017.41;;;15.63;73.73
44457;BME280;30159;49.316;8.558;2023-05-19T05:48:31;101011.84;;;15.73;71.32
44457;BME280;30159;49.316;8.558;2023-05-19T05:50:58;101009.56;;;16.36;68.17
44457;BME280;30159;49.316;8.558;2023-05-19T05:53:29;101010.44;;;16.73;66.67
44457;BME280;30159;49.316;8.558;2023-05-19T05:55:56;101004.97;;;17.45;65.84
44457;BME280;30159;49.316;8.558;2023-05-19T05:58:23;101002.53;;;18.86;60.11
44457;BME280;30159;49.316;8.558;2023-05-19T06:00:50;101002.84;;;18.93;57.69
44457;BME280;30159;49.316;8.558;2023-05-19T06:03:20;101001.38;;;19.13;56.65
44457;BME280;30159;49.316;8.558;2023-05-19T06:05:48;100994.22;;;19.82;57.35
44457;BME280;30159;49.316;8.558;2023-05-19T06:08:15;100998.34;;;20.65;54.44
44457;BME280;30159;49.316;8.558;2023-05-19T06:10:41;100994.31;;;21.25;52.54
44457;BME280;30159;49.316;8.558;2023-05-19T06:13:08;101005.75;;;22.06;51.70
44457;BME280;30159;49.316;8.558;2023-05-19T06:15:35;100995.75;;;22.88;49.10
44457;BME280;30159;49.316;8.558;2023-05-19T06:18:01;101005.88;;;23.68;47.54
44457;BME280;30159;49.316;8.558;2023-05-19T06:20:29;100993.75;;;23.13;47.95
44457;BME280;30159;49.316;8.558;2023-05-19T06:22:56;100984.41;;;23.90;46.59
44457;BME280;30159;49.316;8.558;2023-05-19T06:25:22;100999.91;;;24.81;45.73
44457;BME280;30159;49.316;8.558;2023-05-19T06:27:50;100998.31;;;24.80;46.67
44457;BME280;30159;49.316;8.558;2023-05-19T06:30:16;100978.53;;;25.56;44.59
44457;BME280;30159;49.316;8.558;2023-05-19T06:32:43;100994.91;;;26.37;43.83
44457;BME280;30159;49.316;8.558;2023-05-19T06:35:10;100995.19;;;26.05;43.74
44457;BME280;30159;49.316;8.558;2023-05-19T06:37:38;100982.31;;;27.75;41.90
44457;BME280;30159;49.316;8.558;2023-05-19T06:40:05;100993.25;;;27.98;41.77
44457;BME280;30159;49.316;8.558;2023-05-19T06:42:32;100995.06;;;26.78;42.98
44457;BME280;30159;49.316;8.558;2023-05-19T06:44:59;100996.00;;;26.33;43.50
44457;BME280;30159;49.316;8.558;2023-05-19T06:47:25;100987.03;;;25.90;42.65
44457;BME280;30159;49.316;8.558;2023-05-19T06:49:52;100988.72;;;25.13;43.82
44457;BME280;30159;49.316;8.558;2023-05-19T06:52:19;100989.72;;;26.09;42.77
44457;BME280;30159;49.316;8.558;2023-05-19T06:54:47;100986.50;;;26.87;41.84
44457;BME280;30159;49.316;8.558;2023-05-19T06:57:14;100991.84;;;24.92;44.11
44457;BME280;30159;49.316;8.558;2023-05-19T06:59:40;100995.84;;;25.14;43.50
44457;BME280;30159;49.316;8.558;2023-05-19T07:02:08;100984.50;;;25.58;44.18
44457;BME280;30159;49.316;8.558;2023-05-19T07:04:35;100996.13;;;23.87;45.48
44457;BME280;30159;49.316;8.558;2023-05-19T07:07:01;100989.91;;;23.90;45.93
44457;BME280;30159;49.316;8.558;2023-05-19T07:09:28;100985.56;;;24.56;44.76
44457;BME280;30159;49.316;8.558;2023-05-19T07:11:56;100983.81;;;26.64;41.64
44457;BME280;30159;49.316;8.558;2023-05-19T07:14:22;100981.44;;;26.36;42.18
44457;BME280;30159;49.316;8.558;2023-05-19T07:16:49;100986.44;;;24.25;44.60
44457;BME280;30159;49.316;8.558;2023-05-19T07:19:15;100970.72;;;23.49;45.64
44457;BME280;30159;49.316;8.558;2023-05-19T07:21:43;100958.34;;;22.46;47.82
44457;BME280;30159;49.316;8.558;2023-05-19T07:24:10;100970.47;;;23.70;45.12
44457;BME280;30159;49.316;8.558;2023-05-19T07:26:37;100961.91;;;23.00;46.58
44457;BME280;30159;49.316;8.558;2023-05-19T07:29:05;100956.63;;;23.51;46.53
44457;BME280;30159;49.316;8.558;2023-05-19T07:31:32;100956.97;;;21.79;48.22
44457;BME280;30159;49.316;8.558;2023-05-19T07:33:59;100945.34;;;23.56;46.38
44457;BME280;30159;49.316;8.558;2023-05-19T07:36:25;100963.16;;;23.90;45.25
44457;BME280;30159;49.316;8.558;2023-05-19T07:38:52;100954.38;;;23.85;45.29
44457;BME280;30159;49.316;8.558;2023-05-19T07:41:18;100953.66;;;25.33;44.41
44457;BME280;30159;49.316;8.558;2023-05-19T07:43:45;100948.63;;;26.07;43.11
44457;BME280;30159;49.316;8.558;2023-05-19T07:46:13;100944.41;;;25.91;42.24
44457;BME280;30159;49.316;8.558;2023-05-19T07:48:40;100951.88;;;24.47;44.24
44457;BME280;30159;49.316;8.558;2023-05-19T07:51:07;100949.06;;;26.66;42.52
44457;BME280;30159;49.316;8.558;2023-05-19T07:53:34;100951.53;;;24.68;44.09
44457;BME280;30159;49.316;8.558;2023-05-19T07:56:01;100950.41;;;25.73;42.65
44457;BME280;30159;49.316;8.558;2023-05-19T07:58:27;100918.78;;;26.20;42.31
44457;BME280;30159;49.316;8.558;2023-05-19T08:00:56;100937.44;;;25.31;42.80
44457;BME280;30159;49.316;8.558;2023-05-19T08:03:24;100893.75;;;24.94;43.99
44457;BME280;30159;49.316;8.558;2023-05-19T08:05:51;100927.09;;;22.79;46.36
44457;BME280;30159;49.316;8.558;2023-05-19T08:08:17;100952.59;;;21.20;48.39
44457;BME280;30159;49.316;8.558;2023-05-19T08:10:44;100949.34;;;19.74;51.00
44457;BME280;30159;49.316;8.558;2023-05-19T08:13:11;100939.78;;;19.89;52.07
44457;BME280;30159;49.316;8.558;2023-05-19T08:15:37;100924.81;;;19.31;53.01
44457;BME280;30159;49.316;8.558;2023-05-19T08:18:04;100909.06;;;19.28;52.46
44457;BME280;30159;49.316;8.558;2023-05-19T08:20:32;100917.06;;;19.89;53.24
44457;BME280;30159;49.316;8.558;2023-05-19T08:22:58;100934.47;;;19.84;52.63
44457;BME280;30159;49.316;8.558;2023-05-19T08:25:25;100929.34;;;19.74;53.45
44457;BME280;30159;49.316;8.558;2023-05-19T08:27:51;100926.78;;;18.87;53.88
44457;BME280;30159;49.316;8.558;2023-05-19T08:30:18;100928.03;;;18.54;53.94
44457;BME280;30159;49.316;8.558;2023-05-19T08:32:45;100922.88;;;18.36;57.18
44457;BME280;30159;49.316;8.558;2023-05-19T08:35:12;100927.41;;;18.49;56.76
44457;BME280;30159;49.316;8.558;2023-05-19T08:37:40;100921.63;;;19.11;56.04
44457;BME280;30159;49.316;8.558;2023-05-19T08:40:10;100911.31;;;19.08;54.55
44457;BME280;30159;49.316;8.558;2023-05-19T08:42:41;100932.91;;;18.84;53.76
44457;BME280;30159;49.316;8.558;2023-05-19T08:45:08;100926.41;;;18.45;54.18
44457;BME280;30159;49.316;8.558;2023-05-19T08:47:35;100925.28;;;18.46;54.97
44457;BME280;30159;49.316;8.558;2023-05-19T08:50:03;100923.13;;;18.08;54.67
44457;BME280;30159;49.316;8.558;2023-05-19T08:52:36;100914.00;;;18.21;55.03
44457;BME280;30159;49.316;8.558;2023-05-19T08:55:14;100916.47;;;18.49;54.80
44457;BME280;30159;49.316;8.558;2023-05-19T08:57:46;100911.28;;;18.39;54.52
44457;BME280;30159;49.316;8.558;2023-05-19T09:00:14;100905.84;;;18.47;54.76
44457;BME280;30159;49.316;8.558;2023-05-19T09:02:41;100911.47;;;18.60;54.90
44457;BME280;30159;49.316;8.558;2023-05-19T09:05:09;100904.75;;;19.09;56.34
44457;BME280;30159;49.316;8.558;2023-05-19T09:07:35;100887.00;;;19.33;53.72
44457;BME280;30159;49.316;8.558;2023-05-19T09:10:03;100895.59;;;18.88;53.70
44457;BME280;30159;49.316;8.558;2023-05-19T09:12:32;100890.56;;;18.55;55.04
44457;BME280;30159;49.316;8.558;2023-05-19T09:14:59;100902.63;;;18.37;55.13
44457;BME280;30159;49.316;8.558;2023-05-19T09:17:26;100904.88;;;18.43;55.28
44457;BME280;30159;49.316;8.558;2023-05-19T09:19:53;100895.53;;;18.18;55.05
44457;BME280;30159;49.316;8.558;2023-05-19T09:22:20;100877.91;;;18.42;55.02
44457;BME280;30159;49.316;8.558;2023-05-19T09:24:46;100886.72;;;19.00;54.69
44457;BME280;30159;49.316;8.558;2023-05-19T09:27:13;100903.78;;;18.97;54.14
44457;BME280;30159;49.316;8.558;2023-05-19T09:29:41;100900.19;;;19.31;56.03
44457;BME280;30159;49.316;8.558;2023-05-19T09:32:08;100883.50;;;19.06;53.37
44457;BME280;30159;49.316;8.558;2023-05-19T09:34:39;100880.94;;;18.92;52.85
44457;BME280;30159;49.316;8.558;2023-05-19T09:37:06;100879.66;;;18.99;54.19
44457;BME280;30159;49.316;8.558;2023-05-19T09:39:33;100889.72;;;19.33;56.22
44457;BME280;30159;49.316;8.558;2023-05-19T09:42:03;100879.06;;;19.40;51.61
44457;BME280;30159;49.316;8.558;2023-05-19T09:44:30;100870.47;;;19.12;52.49
44457;BME280;30159;49.316;8.558;2023-05-19T09:46:59;100875.28;;;19.06;51.76
44457;BME280;30159;49.316;8.558;2023-05-19T09:49:28;100879.66;;;18.90;52.12
44457;BME280;30159;49.316;8.558;2023-05-19T09:51:56;100895.69;;;19.17;50.73
44457;BME280;30159;49.316;8.558;2023-05-19T09:54:23;100868.22;;;19.14;51.31
44457;BME280;30159;49.316;8.558;2023-05-19T09:56:56;100867.03;;;19.32;51.65
44457;BME280;30159;49.316;8.558;2023-05-19T09:59:23;100831.03;;;19.13;51.56
44457;BME280;30159;49.316;8.558;2023-05-19T10:01:52;100864.81;;;19.73;52.24
44457;BME280;30159;49.316;8.558;2023-05-19T10:04:21;100858.91;;;19.53;51.68
44457;BME280;30159;49.316;8.558;2023-05-19T10:06:48;100858.03;;;19.79;52.01
44457;BME280;30159;49.316;8.558;2023-05-19T10:09:20;100798.66;;;19.32;52.32
44457;BME280;30159;49.316;8.558;2023-05-19T10:11:48;100843.38;;;19.75;55.03
44457;BME280;30159;49.316;8.558;2023-05-19T10:14:15;100840.28;;;20.48;54.61
44457;BME280;30159;49.316;8.558;2023-05-19T10:16:41;100842.09;;;20.44;51.16
44457;BME280;30159;49.316;8.558;2023-05-19T10:19:10;100838.25;;;19.65;51.33
44457;BME280;30159;49.316;8.558;2023-05-19T10:21:39;100845.19;;;19.15;53.28
44457;BME280;30159;49.316;8.558;2023-05-19T10:24:06;100840.81;;;19.23;53.98
44457;BME280;30159;49.316;8.558;2023-05-19T10:26:33;100832.81;;;19.17;54.40
44457;BME280;30159;49.316;8.558;2023-05-19T10:29:01;100838.09;;;19.70;53.81
44457;BME280;30159;49.316;8.558;2023-05-19T10:31:29;100833.06;;;20.23;53.80
44457;BME280;30159;49.316;8.558;2023-05-19T10:34:21;100828.13;;;20.16;52.82
44457;BME280;30159;49.316;8.558;2023-05-19T10:36:57;100840.84;;;19.70;50.01
44457;BME280;30159;49.316;8.558;2023-05-19T10:39:32;100830.94;;;19.39;49.75
44457;BME280;30159;49.316;8.558;2023-05-19T10:42:03;100830.34;;;19.72;50.96
44457;BME280;30159;49.316;8.558;2023-05-19T10:44:39;100826.53;;;19.94;52.72
44457;BME280;30159;49.316;8.558;2023-05-19T10:47:11;100840.59;;;19.84;51.74
44457;BME280;30159;49.316;8.558;2023-05-19T10:49:38;100829.06;;;19.69;49.98
44457;BME280;30159;49.316;8.558;2023-05-19T10:52:18;100839.13;;;19.48;51.16
44457;BME280;30159;49.316;8.558;2023-05-19T10:54:45;100809.81;;;19.48;50.20
44457;BME280;30159;49.316;8.558;2023-05-19T10:57:13;100834.22;;;19.32;50.07
44457;BME280;30159;49.316;8.558;2023-05-19T10:59:41;100784.75;;;18.99;51.31
44457;BME280;30159;49.316;8.558;2023-05-19T11:02:09;100825.41;;;19.18;51.75
44457;BME280;30159;49.316;8.558;2023-05-19T11:04:44;100821.81;;;19.65;52.03
44457;BME280;30159;49.316;8.558;2023-05-19T11:07:17;100818.34;;;19.85;51.26
44457;BME280;30159;49.316;8.558;2023-05-19T11:09:48;100809.03;;;20.28;50.43
44457;BME280;30159;49.316;8.558;2023-05-19T11:12:18;100816.88;;;20.51;50.26
44457;BME280;30159;49.316;8.558;2023-05-19T11:14:45;100815.06;;;20.76;49.55
44457;BME280;30159;49.316;8.558;2023-05-19T11:17:13;100762.66;;;20.77;50.01
44457;BME280;30159;49.316;8.558;2023-05-19T11:19:51;100805.22;;;21.94;49.84
44457;BME280;30159;49.316;8.558;2023-05-19T11:22:22;100801.47;;;22.83;47.83
44457;BME280;30159;49.316;8.558;2023-05-19T11:24:49;100797.06;;;23.58;46.31
44457;BME280;30159;49.316;8.558;2023-05-19T11:27:23;100800.66;;;23.43;47.04
44457;BME280;30159;49.316;8.558;2023-05-19T11:29:51;100803.81;;;23.45;46.57
44457;BME280;30159;49.316;8.558;2023-05-19T11:32:19;100786.28;;;23.18;46.49
44457;BME280;30159;49.316;8.558;2023-05-19T11:34:47;100792.63;;;21.93;47.74
44457;BME280;30159;49.316;8.558;2023-05-19T11:37:14;100799.25;;;22.04;48.80
44457;BME280;30159;49.316;8.558;2023-05-19T11:39:44;100794.56;;;22.45;48.82
44457;BME280;30159;49.316;8.558;2023-05-19T11:42:11;100802.06;;;21.43;48.32
44457;BME280;30159;49.316;8.558;2023-05-19T11:44:38;100799.63;;;20.71;50.07
44457;BME280;30159;49.316;8.558;2023-05-19T11:47:07;100797.41;;;20.31;50.29
44457;BME280;30159;49.316;8.558;2023-05-19T11:49:34;100797.34;;;20.61;50.36
44457;BME280;30159;49.316;8.558;2023-05-19T11:52:01;100802.06;;;20.85;50.72
44457;BME280;30159;49.316;8.558;2023-05-19T11:54:28;100797.44;;;21.10;50.32
44457;BME280;30159;49.316;8.558;2023-05-19T11:56:59;100765.09;;;21.16;51.00
44457;BME280;30159;49.316;8.558;2023-05-19T11:59:30;100781.50;;;22.02;50.30
44457;BME280;30159;49.316;8.558;2023-05-19T12:02:00;100788.78;;;21.70;49.87
44457;BME280;30159;49.316;8.558;2023-05-19T12:04:29;100788.44;;;21.71;50.44
44457;BME280;30159;49.316;8.558;2023-05-19T12:06:55;100785.13;;;21.78;48.51
44457;BME280;30159;49.316;8.558;2023-05-19T12:09:24;100787.09;;;22.18;49.20
44457;BME280;30159;49.316;8.558;2023-05-19T12:11:53;100740.97;;;21.34;50.23
44457;BME280;30159;49.316;8.558;2023-05-19T12:14:22;100799.06;;;21.36;51.64
44457;BME280;30159;49.316;8.558;2023-05-19T12:16:48;100789.47;;;21.66;51.13
44457;BME280;30159;49.316;8.558;2023-05-19T12:19:15;100787.19;;;21.32;51.17
44457;BME280;30159;49.316;8.558;2023-05-19T12:21:42;100764.75;;;21.30;52.17
44457;BME280;30159;49.316;8.558;2023-05-19T12:24:09;100790.88;;;22.13;51.09
44457;BME280;30159;49.316;8.558;2023-05-19T12:26:36;100788.31;;;22.33;50.93
44457;BME280;30159;49.316;8.558;2023-05-19T12:29:04;100781.75;;;22.37;51.44
44457;BME280;30159;49.316;8.558;2023-05-19T12:31:33;100783.72;;;22.37;50.54
44457;BME280;30159;49.316;8.558;2023-05-19T12:34:00;100778.06;;;21.40;51.80
44457;BME280;30159;49.316;8.558;2023-05-19T12:36:26;100792.88;;;21.14;52.35
44457;BME280;30159;49.316;8.558;2023-05-19T12:38:54;100793.06;;;20.97;52.98
44457;BME280;30159;49.316;8.558;2023-05-19T12:41:20;100797.00;;;21.08;52.94
44457;BME280;30159;49.316;8.558;2023-05-19T12:43:47;100792.69;;;21.44;53.22
44457;BME280;30159;49.316;8.558;2023-05-19T12:46:17;100789.56;;;21.70;52.18
44457;BME280;30159;49.316;8.558;2023-05-19T12:48:45;100789.69;;;21.24;52.85
44457;BME280;30159;49.316;8.558;2023-05-19T12:51:15;100791.59;;;20.99;53.00
44457;BME280;30159;49.316;8.558;2023-05-19T12:53:42;100790.00;;;20.65;53.93
44457;BME280;30159;49.316;8.558;2023-05-19T12:56:12;100789.84;;;20.82;53.96